Time;durP1;ratioP1;P1;durP2;ratioP2;P2;SDS_P1;SDS_P2;PMS_P1;PMS_P2;Temp;Humidity;BMP_temperature;BMP_pressure;BME280_temperature;BME280_humidity;BME280_pressure;Samples;Min_cycle;Max_cycle;Signal;HPM_P1;HPM_P2
2022/04/23 00:00:43;;;;;;;15.70;13.70;;;;;;;-150.27;100.00;61272.81;5223119;28;20037;-75
2022/04/23 00:03:15;;;;;;;16.23;14.63;;;;;;;-150.27;100.00;61272.81;5209213;28;20049;-75
2022/04/23 00:05:46;;;;;;;17.33;14.63;;;;;;;-150.27;100.00;61272.81;5225700;28;20030;-75
2022/04/23 00:08:17;;;;;;;18.10;14.57;;;;;;;-150.27;100.00;61272.81;5230821;28;20041;-74
2022/04/23 00:10:49;;;;;;;17.80;14.80;;;;;;;-150.27;100.00;61272.81;5223043;28;20061;-75
2022/04/23 00:13:20;;;;;;;18.50;14.03;;;;;;;-150.27;100.00;61272.81;5217991;28;20033;-75
2022/04/23 00:15:52;;;;;;;22.00;13.93;;;;;;;-150.27;100.00;61272.81;5227496;28;20033;-75
2022/04/23 00:18:24;;;;;;;14.30;12.80;;;;;;;-150.27;100.00;61272.81;5208188;28;20529;-75
2022/04/23 00:20:56;;;;;;;15.80;14.10;;;;;;;-150.27;100.00;61272.81;5226020;28;20045;-75
2022/04/23 00:23:31;;;;;;;17.80;14.07;;;;;;;-150.27;100.00;61272.81;5224085;28;20666;-75
2022/04/23 00:26:02;;;;;;;;;;;;;;;-150.27;100.00;61272.81;5226303;28;20044;-75
2022/04/23 00:28:33;;;;;;;15.47;13.97;;;;;;;-150.27;100.00;61272.81;5225366;28;19920;-77
2022/04/23 00:31:05;;;;;;;19.27;15.93;;;;;;;-150.27;100.00;61272.81;5218257;28;20036;-75
2022/04/23 00:33:37;;;;;;;20.70;15.67;;;;;;;-150.27;100.00;61272.81;5228960;28;20021;-74
2022/04/23 00:36:10;;;;;;;18.73;14.70;;;;;;;-150.27;100.00;61272.81;5228494;28;20033;-75
2022/04/23 00:38:42;;;;;;;16.87;15.17;;;;;;;-150.27;100.00;61272.81;5211357;28;20033;-75
2022/04/23 00:41:45;;;;;;;17.47;14.53;;;;;;;-150.27;100.00;61272.81;5222682;28;20025;-75
2022/04/23 00:44:05;;;;;;;15.40;13.63;;;;;;;-150.27;100.00;61272.81;5219312;28;20672;-75
2022/04/23 00:46:37;;;;;;;18.10;15.60;;;;;;;-150.27;100.00;61272.81;5227557;28;20029;-76
2022/04/23 00:49:08;;;;;;;17.63;14.67;;;;;;;-150.27;100.00;61272.81;5230013;28;20112;-75
2022/04/23 00:51:41;;;;;;;18.37;15.10;;;;;;;-150.27;100.00;61272.81;5221032;28;20018;-75
2022/04/23 00:54:12;;;;;;;16.70;14.27;;;;;;;-150.27;100.00;61272.81;5228701;28;20056;-75
2022/04/23 00:56:44;;;;;;;17.27;15.07;;;;;;;-150.27;100.00;61272.81;5227963;28;20067;-75
2022/04/23 00:59:15;;;;;;;21.43;15.97;;;;;;;-150.27;100.00;61272.81;5229230;28;20025;-74
2022/04/23 01:01:48;;;;;;;16.57;14.87;;;;;;;-150.27;100.00;61272.81;5212174;28;20059;-75
2022/04/23 01:04:20;;;;;;;18.53;15.47;;;;;;;-150.27;100.00;61272.81;5228210;28;20068;-75
2022/04/23 01:06:51;;;;;;;17.43;15.33;;;;;;;-150.27;100.00;61272.81;5218974;28;20033;-75
2022/04/23 01:09:22;;;;;;;19.40;16.07;;;;;;;-150.27;100.00;61272.81;5222713;28;20034;-76
2022/04/23 01:11:57;;;;;;;17.50;15.70;;;;;;;-150.27;100.00;61272.81;5223573;28;20027;-75
2022/04/23 01:14:29;;;;;;;17.17;15.03;;;;;;;-150.27;100.00;61272.81;5218801;28;20436;-76
2022/04/23 01:17:01;;;;;;;18.70;16.10;;;;;;;-150.27;100.00;61272.81;5227568;28;20103;-76
2022/04/23 01:19:32;;;;;;;18.27;16.30;;;;;;;-150.27;100.00;61272.81;5228427;28;20100;-75
2022/04/23 01:22:04;;;;;;;18.03;15.93;;;;;;;-150.27;100.00;61272.81;5223562;28;20060;-75
2022/04/23 01:24:36;;;;;;;19.20;17.30;;;;;;;-150.27;100.00;61272.81;5222579;28;20455;-75
2022/04/23 01:27:07;;;;;;;18.40;16.43;;;;;;;-150.27;100.00;61272.81;5207365;28;20123;-76
2022/04/23 01:29:39;;;;;;;21.17;17.60;;;;;;;-150.27;100.00;61272.81;5228949;28;20060;-76
2022/04/23 01:32:10;;;;;;;19.37;16.90;;;;;;;-150.27;100.00;61272.81;5227428;28;20546;-76
2022/04/23 01:34:41;;;;;;;19.93;16.53;;;;;;;-150.27;100.00;61272.81;5227755;28;20033;-75
2022/04/23 01:37:13;;;;;;;19.47;16.57;;;;;;;-150.27;100.00;61272.81;5224787;28;20137;-75
2022/04/23 01:39:47;;;;;;;23.77;18.00;;;;;;;-150.27;100.00;61272.81;5225806;28;20028;-76
2022/04/23 01:42:19;;;;;;;19.77;17.80;;;;;;;-150.27;100.00;61272.81;5223623;28;20025;-74
2022/04/23 01:44:52;;;;;;;19.93;17.87;;;;;;;-150.27;100.00;61272.81;5219049;28;20037;-75
2022/04/23 01:47:23;;;;;;;23.47;18.13;;;;;;;-150.27;100.00;61272.81;5229172;28;20076;-72
2022/04/23 01:49:54;;;;;;;21.63;18.33;;;;;;;-150.27;100.00;61272.81;5206698;28;20838;-74
2022/04/23 01:52:26;;;;;;;20.17;17.90;;;;;;;-150.27;100.00;61272.81;5227768;28;20037;-75
2022/04/23 01:54:57;;;;;;;19.93;17.83;;;;;;;-150.27;100.00;61272.81;5228044;28;20464;-74
2022/04/23 01:57:28;;;;;;;21.40;18.97;;;;;;;-150.27;100.00;61272.81;5223632;28;20297;-75
2022/04/23 02:00:00;;;;;;;20.57;18.53;;;;;;;-150.27;100.00;61272.81;5224492;28;20126;-77
2022/04/23 02:02:31;;;;;;;21.17;18.87;;;;;;;-150.27;100.00;61272.81;5223080;28;20701;-76
2022/04/23 02:05:04;;;;;;;20.03;18.00;;;;;;;-150.27;100.00;61272.81;5227213;28;20033;-75
2022/04/23 02:07:39;;;;;;;21.90;18.90;;;;;;;-150.27;100.00;61272.81;5210366;28;20794;-75
2022/04/23 02:10:13;;;;;;;21.60;19.00;;;;;;;-150.27;100.00;61272.81;5222314;28;20033;-74
2022/04/23 02:12:46;;;;;;;26.55;19.17;;;;;;;-150.27;100.00;61272.81;5203700;28;20091;-74
2022/04/23 02:15:17;;;;;;;23.73;20.93;;;;;;;-150.27;100.00;61272.81;5226492;28;20037;-75
2022/04/23 02:17:49;;;;;;;22.57;20.17;;;;;;;-150.27;100.00;61272.81;5227767;28;20025;-75
2022/04/23 02:20:22;;;;;;;24.20;20.13;;;;;;;-150.27;100.00;61272.81;5227945;28;20017;-75
2022/04/23 02:22:53;;;;;;;22.60;20.20;;;;;;;-150.27;100.00;61272.81;5211820;28;20063;-73
2022/04/23 02:25:24;;;;;;;24.10;21.40;;;;;;;-150.27;100.00;61272.81;5228765;28;20478;-75
2022/04/23 02:27:56;;;;;;;23.70;21.23;;;;;;;-150.27;100.00;61272.81;5190608;28;20036;-76
2022/04/23 02:30:27;;;;;;;23.53;21.13;;;;;;;-150.27;100.00;61272.81;5203931;28;20033;-76
2022/04/23 02:32:59;;;;;;;23.63;21.20;;;;;;;-150.27;100.00;61272.81;5230571;28;20033;-76
2022/04/23 02:35:34;;;;;;;25.93;21.63;;;;;;;-150.27;100.00;61272.81;5222352;28;20122;-76
2022/04/23 02:38:05;;;;;;;24.73;22.10;;;;;;;-150.27;100.00;61272.81;5228716;28;20030;-76
2022/04/23 02:40:38;;;;;;;25.03;22.43;;;;;;;-150.27;100.00;61272.81;5223214;28;20491;-76
2022/04/23 02:43:12;;;;;;;26.50;23.77;;;;;;;-150.27;100.00;61272.81;5222997;28;20112;-75
2022/04/23 02:45:44;;;;;;;27.23;24.37;;;;;;;-150.27;100.00;61272.81;5230626;28;20029;-76
2022/04/23 02:48:16;;;;;;;26.47;23.63;;;;;;;-150.27;100.00;61272.81;5197053;28;20311;-76
2022/04/23 02:50:47;;;;;;;26.77;23.97;;;;;;;-150.27;100.00;61272.81;5224270;28;20985;-76
2022/04/23 02:53:18;;;;;;;25.73;23.03;;;;;;;-150.27;100.00;61272.81;5228650;28;20022;-75
2022/04/23 02:55:51;;;;;;;28.73;24.50;;;;;;;-150.27;100.00;61272.81;5212119;28;20087;-76
2022/04/23 02:58:25;;;;;;;25.77;23.00;;;;;;;-150.27;100.00;61272.81;5233793;28;20063;-76
2022/04/23 03:00:56;;;;;;;27.23;23.80;;;;;;;-150.27;100.00;61272.81;5209221;28;20033;-76
2022/04/23 03:03:28;;;;;;;27.53;24.57;;;;;;;-150.27;100.00;61272.81;5207685;28;20424;-76
2022/04/23 03:05:59;;;;;;;27.93;24.80;;;;;;;-150.27;100.00;61272.81;5229418;28;20733;-75
2022/04/23 03:08:30;;;;;;;27.13;24.43;;;;;;;-150.27;100.00;61272.81;5225396;28;20037;-76
2022/04/23 03:11:02;;;;;;;27.47;24.53;;;;;;;-150.27;100.00;61272.81;5224538;28;20037;-76
2022/04/23 03:13:35;;;;;;;29.90;25.83;;;;;;;-150.27;100.00;61272.81;5223867;28;20033;-76
2022/04/23 03:16:07;;;;;;;29.20;25.53;;;;;;;-150.27;100.00;61272.81;5223899;28;20033;-76
2022/04/23 03:18:38;;;;;;;29.90;26.73;;;;;;;-150.27;100.00;61272.81;5223279;28;20040;-76
2022/04/23 03:21:10;;;;;;;30.93;27.80;;;;;;;-150.27;100.00;61272.81;5210497;28;20068;-76
2022/04/23 03:23:41;;;;;;;29.03;26.03;;;;;;;-150.27;100.00;61272.81;5230930;28;20030;-77
2022/04/23 03:26:12;;;;;;;29.00;25.73;;;;;;;-150.27;100.00;61272.81;5229676;28;20466;-76
2022/04/23 03:28:43;;;;;;;29.27;26.17;;;;;;;-150.27;100.00;61272.81;5229675;28;20029;-76
2022/04/23 03:31:15;;;;;;;27.87;24.97;;;;;;;-150.27;100.00;61272.81;5198976;28;20514;-75
2022/04/23 03:33:46;;;;;;;29.00;25.13;;;;;;;-150.27;100.00;61272.81;5229835;28;20037;-76
2022/04/23 03:36:18;;;;;;;31.07;27.00;;;;;;;-150.27;100.00;61272.81;5230026;28;20112;-76
2022/04/23 03:38:49;;;;;;;30.30;27.00;;;;;;;-150.27;100.00;61272.81;5228880;28;20426;-75
2022/04/23 03:41:20;;;;;;;28.93;25.87;;;;;;;-150.27;100.00;61272.81;5225005;28;20029;-76
2022/04/23 03:43:52;;;;;;;30.20;25.63;;;;;;;-150.27;100.00;61272.81;5221079;28;20025;-76
2022/04/23 03:46:23;;;;;;;33.33;29.73;;;;;;;-150.27;100.00;61272.81;5224967;28;20874;-76
2022/04/23 03:48:54;;;;;;;30.23;27.13;;;;;;;-150.27;100.00;61272.81;5230244;28;20017;-76
2022/04/23 03:51:26;;;;;;;31.43;28.27;;;;;;;-150.27;100.00;61272.81;5223902;28;20033;-77
2022/04/23 03:53:57;;;;;;;32.00;28.73;;;;;;;-150.27;100.00;61272.81;5211938;28;20065;-76
2022/04/23 03:56:28;;;;;;;32.37;28.20;;;;;;;-150.27;100.00;61272.81;5219773;28;20095;-76
2022/04/23 03:59:00;;;;;;;31.57;28.20;;;;;;;-150.27;100.00;61272.81;5202225;28;20045;-76
2022/04/23 04:01:31;;;;;;;29.60;26.57;;;;;;;-150.27;100.00;61272.81;5213758;28;20018;-76
2022/04/23 04:04:02;;;;;;;32.00;28.57;;;;;;;-150.27;100.00;61272.81;5230330;28;20053;-76
2022/04/23 04:06:34;;;;;;;32.23;28.50;;;;;;;-150.27;100.00;61272.81;5228609;28;20052;-76
2022/04/23 04:09:05;;;;;;;32.97;28.47;;;;;;;-150.27;100.00;61272.81;5210897;28;20087;-76
2022/04/23 04:14:27;;;;;;;33.07;28.87;;;;;;;-150.27;100.00;61272.81;5226607;28;20022;-76
2022/04/23 04:17:00;;;;;;;35.40;28.77;;;;;;;-150.27;100.00;61272.81;5221659;28;20103;-76
2022/04/23 04:19:32;;;;;;;32.50;29.10;;;;;;;-150.27;100.00;61272.81;5228720;28;20436;-76
2022/04/23 04:22:04;;;;;;;31.97;28.13;;;;;;;-150.27;100.00;61272.81;5219887;28;20042;-76
2022/04/23 04:24:36;;;;;;;30.50;27.10;;;;;;;-150.27;100.00;61272.81;5209881;28;20087;-76
2022/04/23 04:27:07;;;;;;;32.27;28.57;;;;;;;-150.27;100.00;61272.81;5227489;28;20042;-76
2022/04/23 04:29:38;;;;;;;32.00;28.60;;;;;;;-150.27;100.00;61272.81;5209804;28;20476;-76
2022/04/23 04:32:10;;;;;;;33.67;27.73;;;;;;;-150.27;100.00;61272.81;5226456;28;20025;-76
2022/04/23 04:34:41;;;;;;;31.87;28.63;;;;;;;-150.27;100.00;61272.81;5227324;28;20476;-76
2022/04/23 04:37:13;;;;;;;31.63;28.37;;;;;;;-150.27;100.00;61272.81;5227969;28;20240;-76
2022/04/23 04:39:44;;;;;;;34.40;30.80;;;;;;;-150.27;100.00;61272.81;5229215;28;20021;-76
2022/04/23 04:42:16;;;;;;;33.03;29.53;;;;;;;-150.27;100.00;61272.81;5210661;28;20491;-76
2022/04/23 04:44:49;;;;;;;32.57;29.27;;;;;;;-150.27;100.00;61272.81;5227054;28;20676;-76
2022/04/23 04:47:21;;;;;;;33.73;29.43;;;;;;;-150.27;100.00;61272.81;5229212;28;20121;-77
2022/04/23 04:49:52;;;;;;;45.77;31.83;;;;;;;-150.27;100.00;61272.81;5225297;28;20112;-76
2022/04/23 04:52:23;;;;;;;33.10;29.57;;;;;;;-150.27;100.00;61272.81;5224549;28;20037;-72
2022/04/23 04:54:54;;;;;;;32.67;29.17;;;;;;;-150.27;100.00;61272.81;5192770;28;20033;-75
2022/04/23 04:57:26;;;;;;;32.13;28.70;;;;;;;-150.27;100.00;61272.81;5217797;28;20570;-76
2022/04/23 04:59:57;;;;;;;32.87;29.43;;;;;;;-150.27;100.00;61272.81;5225170;28;20033;-75
2022/04/23 05:02:28;;;;;;;33.80;30.40;;;;;;;-150.27;100.00;61272.81;5221982;28;20030;-76
2022/04/23 05:04:59;;;;;;;32.93;29.70;;;;;;;-150.27;100.00;61272.81;5226746;28;20087;-76
2022/04/23 05:07:31;;;;;;;33.43;29.87;;;;;;;-150.27;100.00;61272.81;5225555;28;20045;-75
2022/04/23 05:10:03;;;;;;;36.53;30.80;;;;;;;-150.27;100.00;61272.81;5217127;28;20040;-76
2022/04/23 05:12:35;;;;;;;32.70;29.30;;;;;;;-150.27;100.00;61272.81;5224403;28;20057;-76
2022/04/23 05:15:07;;;;;;;32.17;28.50;;;;;;;-150.27;100.00;61272.81;5227590;28;20017;-76
2022/04/23 05:17:39;;;;;;;31.70;28.40;;;;;;;-150.27;100.00;61272.81;5204858;28;20571;-76
2022/04/23 05:20:10;;;;;;;32.77;29.10;;;;;;;-150.27;100.00;61272.81;5223280;28;20040;-76
2022/04/23 05:22:42;;;;;;;32.30;28.83;;;;;;;-150.27;100.00;61272.81;5227399;28;20032;-74
2022/04/23 05:25:13;;;;;;;32.23;28.73;;;;;;;-150.27;100.00;61272.81;5223973;28;20492;-75
2022/04/23 05:27:44;;;;;;;32.90;29.57;;;;;;;-150.27;100.00;61272.81;5222573;28;20496;-75
2022/04/23 05:30:15;;;;;;;32.83;29.17;;;;;;;-150.27;100.00;61272.81;5226933;28;20488;-76
2022/04/23 05:32:47;;;;;;;33.73;30.37;;;;;;;-150.27;100.00;61272.81;5226844;28;20466;-75
2022/04/23 05:35:18;;;;;;;32.17;28.73;;;;;;;-150.27;100.00;61272.81;5228300;28;20920;-75
2022/04/23 05:37:49;;;;;;;31.90;28.80;;;;;;;-150.27;100.00;61272.81;5227765;28;20451;-75
2022/04/23 05:40:21;;;;;;;32.07;28.53;;;;;;;-150.27;100.00;61272.81;5223640;28;20431;-75
2022/04/23 05:42:58;;;;;;;32.87;29.47;;;;;;;-150.27;100.00;61272.81;5203577;28;20466;-76
2022/04/23 05:45:29;;;;;;;32.10;28.73;;;;;;;-150.27;100.00;61272.81;5223972;28;20719;-76
2022/04/23 05:48:00;;;;;;;32.20;28.80;;;;;;;-150.27;100.00;61272.81;5223885;28;20100;-76
2022/04/23 05:50:32;;;;;;;33.60;29.93;;;;;;;-150.27;100.00;61272.81;5223885;28;20163;-76
2022/04/23 05:53:03;;;;;;;32.00;28.70;;;;;;;-150.27;100.00;61272.81;5217693;28;20037;-76
2022/04/23 05:55:35;;;;;;;33.77;29.77;;;;;;;-150.27;100.00;61272.81;5227152;28;20685;-77
2022/04/23 05:58:06;;;;;;;31.60;28.20;;;;;;;-150.27;100.00;61272.81;5229789;28;20036;-77
2022/04/23 06:00:37;;;;;;;37.60;28.37;;;;;;;-150.27;100.00;61272.81;5230226;28;20492;-76
2022/04/23 06:03:08;;;;;;;33.33;27.87;;;;;;;-150.27;100.00;61272.81;5231503;28;20436;-76
2022/04/23 06:05:40;;;;;;;32.30;28.67;;;;;;;-150.27;100.00;61272.81;5228317;28;20484;-76
2022/04/23 06:08:11;;;;;;;30.63;27.60;;;;;;;-150.27;100.00;61272.81;5229378;28;20037;-76
2022/04/23 06:10:42;;;;;;;31.80;28.60;;;;;;;-150.27;100.00;61272.81;5225161;28;20590;-75
2022/04/23 06:13:14;;;;;;;29.67;26.67;;;;;;;-150.27;100.00;61272.81;5228951;28;20082;-76
2022/04/23 06:15:45;;;;;;;29.77;26.87;;;;;;;-150.27;100.00;61272.81;5213161;28;20061;-73
2022/04/23 06:18:16;;;;;;;32.30;28.83;;;;;;;-150.27;100.00;61272.81;5231385;28;20037;-76
2022/04/23 06:20:47;;;;;;;32.43;29.03;;;;;;;-150.27;100.00;61272.81;5231580;28;20025;-75
2022/04/23 06:23:19;;;;;;;30.40;27.27;;;;;;;-150.27;100.00;61272.81;5243142;28;20047;-79
2022/04/23 06:25:50;;;;;;;30.57;27.37;;;;;;;-150.27;100.00;61272.81;5227242;28;20040;-81
2022/04/23 06:28:21;;;;;;;32.37;28.93;;;;;;;-150.27;100.00;61272.81;5213413;28;20029;-79
2022/04/23 06:30:53;;;;;;;30.77;27.73;;;;;;;-150.27;100.00;61272.81;5231851;28;20029;-78
2022/04/23 06:33:24;;;;;;;31.87;28.13;;;;;;;-150.27;100.00;61272.81;5213893;28;20037;-77
2022/04/23 06:35:55;;;;;;;31.00;27.80;;;;;;;-150.27;100.00;61272.81;5224727;28;20042;-75
2022/04/23 06:38:26;;;;;;;31.10;28.00;;;;;;;-150.27;100.00;61272.81;5231484;28;20055;-76
2022/04/23 06:40:58;;;;;;;29.47;26.23;;;;;;;-150.27;100.00;61272.81;5230828;28;20579;-80
2022/04/23 06:43:29;;;;;;;28.57;25.33;;;;;;;-150.27;100.00;61272.81;5214757;28;20033;-78
2022/04/23 06:46:00;;;;;;;28.83;25.93;;;;;;;-150.27;100.00;61272.81;5217915;28;20135;-78
2022/04/23 06:48:31;;;;;;;27.27;24.37;;;;;;;-150.27;100.00;61272.81;5238085;28;20041;-78
2022/04/23 06:51:02;;;;;;;27.90;25.13;;;;;;;-150.27;100.00;61272.81;5238771;28;20030;-83
2022/04/23 06:53:34;;;;;;;29.97;26.90;;;;;;;-150.27;100.00;61272.81;5231199;28;20439;-77
2022/04/23 06:56:05;;;;;;;28.17;25.23;;;;;;;-150.27;100.00;61272.81;5212874;28;20488;-82
2022/04/23 06:58:36;;;;;;;30.00;26.60;;;;;;;-150.27;100.00;61272.81;5231367;28;20497;-81
2022/04/23 07:01:07;;;;;;;28.60;25.70;;;;;;;-150.27;100.00;61272.81;5229616;28;20395;-82
2022/04/23 07:03:39;;;;;;;28.10;25.20;;;;;;;-150.27;100.00;61272.81;5230871;28;20344;-73
2022/04/23 07:06:11;;;;;;;28.90;26.03;;;;;;;-150.27;100.00;61272.81;5207690;28;20041;-77
2022/04/23 07:08:44;;;;;;;28.50;25.40;;;;;;;-150.27;100.00;61272.81;5212603;28;20543;-76
2022/04/23 07:11:15;;;;;;;26.50;23.90;;;;;;;-150.27;100.00;61272.81;5230820;28;20492;-73
2022/04/23 07:13:46;;;;;;;26.80;24.30;;;;;;;-150.27;100.00;61272.81;5227309;28;20028;-72
2022/04/23 07:16:17;;;;;;;27.50;24.67;;;;;;;-150.27;100.00;61272.81;5242069;28;20032;-72
2022/04/23 07:18:52;;;;;;;26.60;23.80;;;;;;;-150.27;100.00;61272.81;5240749;28;20037;-72
2022/04/23 07:21:23;;;;;;;26.15;23.58;;;;;;;-150.27;100.00;61272.81;5236535;28;20040;-72
2022/04/23 07:24:03;;;;;;;25.80;23.20;;;;;;;-150.27;100.00;61272.81;5240885;28;20033;-80
2022/04/23 07:26:36;;;;;;;26.70;24.00;;;;;;;-150.27;100.00;61272.81;5225951;28;20396;-79
2022/04/23 07:29:10;;;;;;;27.40;24.40;;;;;;;-150.27;100.00;61272.81;5229699;28;20025;-73
2022/04/23 07:31:41;;;;;;;25.85;23.25;;;;;;;-150.27;100.00;61272.81;5228982;28;20078;-75
2022/04/23 07:39:59;;;;;;;24.10;21.67;;;;;;;-150.27;100.00;61272.81;5234729;28;20029;-76
2022/04/23 07:42:31;;;;;;;23.27;20.90;;;;;;;-150.27;100.00;61272.81;5243874;28;20464;-76
2022/04/23 07:45:04;;;;;;;24.07;21.67;;;;;;;-150.27;100.00;61272.81;5237641;28;20040;-79
2022/04/23 07:47:35;;;;;;;21.27;19.07;;;;;;;-150.27;100.00;61272.81;5242011;28;20029;-75
2022/04/23 07:50:08;;;;;;;22.90;18.83;;;;;;;-150.27;100.00;61272.81;5210923;28;20045;-78
2022/04/23 07:52:39;;;;;;;19.97;17.93;;;;;;;-150.27;100.00;61272.81;5233622;28;20032;-78
2022/04/23 07:55:10;;;;;;;19.80;17.90;;;;;;;-150.27;100.00;61272.81;5242566;28;20037;-76
2022/04/23 07:57:41;;;;;;;20.43;18.03;;;;;;;-150.27;100.00;61272.81;5235373;28;20037;-75
2022/04/23 08:00:13;;;;;;;18.97;17.07;;;;;;;-150.27;100.00;61272.81;5233291;28;20041;-76
2022/04/23 08:02:44;;;;;;;19.60;17.60;;;;;;;-150.27;100.00;61272.81;5209099;28;20100;-75
2022/04/23 08:05:16;;;;;;;18.50;16.63;;;;;;;-150.27;100.00;61272.81;5223049;28;20068;-76
2022/04/23 08:07:47;;;;;;;17.77;15.97;;;;;;;-150.27;100.00;61272.81;5225726;28;20020;-76
2022/04/23 08:10:19;;;;;;;18.50;16.47;;;;;;;-150.27;100.00;61272.81;5236837;28;20033;-76
2022/04/23 08:12:50;;;;;;;17.60;16.00;;;;;;;-150.27;100.00;61272.81;5232853;28;20033;-76
2022/04/23 08:15:22;;;;;;;17.07;15.33;;;;;;;-150.27;100.00;61272.81;5237825;28;20112;-76
2022/04/23 08:17:54;;;;;;;18.63;16.47;;;;;;;-150.27;100.00;61272.81;5230073;28;20022;-77
2022/04/23 08:20:25;;;;;;;18.35;16.45;;;;;;;-150.27;100.00;61272.81;5222233;28;20091;-76
2022/04/23 08:22:57;;;;;;;17.90;16.05;;;;;;;-150.27;100.00;61272.81;5229010;28;20029;-79
2022/04/23 08:25:28;;;;;;;17.27;15.63;;;;;;;-150.27;100.00;61272.81;5225145;28;20056;-77
2022/04/23 08:30:49;;;;;;;16.17;14.75;;;;;;;-150.27;100.00;61272.81;5237695;28;20025;-74
2022/04/23 08:33:20;;;;;;;18.13;16.20;;;;;;;-150.27;100.00;61272.81;5206231;28;20487;-74
2022/04/23 08:35:52;;;;;;;16.23;14.27;;;;;;;-150.27;100.00;61272.81;5233872;28;20026;-77
2022/04/23 08:38:23;;;;;;;19.63;16.42;;;;;;;-150.27;100.00;61272.81;5211020;28;20029;-79
2022/04/23 08:40:54;;;;;;;20.27;16.02;;;;;;;-150.27;100.00;61272.81;5224371;28;20087;-81
2022/04/23 08:43:26;;;;;;;19.02;15.20;;;;;;;-150.27;100.00;61272.81;5239065;28;20033;-81
2022/04/23 08:46:01;;;;;;;16.63;15.00;;;;;;;-150.27;100.00;61272.81;5205565;28;20038;-80
2022/04/23 08:48:47;;;;;;;17.45;15.63;;;;;;;-150.27;100.00;61272.81;5204387;28;20080;-78
2022/04/23 08:51:22;;;;;;;17.75;16.00;;;;;;;-150.27;100.00;61272.81;5230283;28;20484;-78
2022/04/23 08:53:57;;;;;;;18.67;16.98;;;;;;;-150.27;100.00;61272.81;5197748;28;20037;-75
2022/04/23 08:56:28;;;;;;;17.23;15.63;;;;;;;-150.27;100.00;61272.81;5221151;28;20061;-75
2022/04/23 08:59:00;;;;;;;18.08;16.23;;;;;;;-150.27;100.00;61272.81;5208943;28;20252;-77
2022/04/23 09:01:31;;;;;;;17.90;16.15;;;;;;;-150.27;100.00;61272.81;5227899;28;20049;-77
2022/04/23 09:04:04;;;;;;;18.23;16.55;;;;;;;-150.27;100.00;61272.81;5228073;28;20057;-76
2022/04/23 09:06:41;;;;;;;18.42;16.65;;;;;;;-150.27;100.00;61272.81;5228235;28;20531;-76
2022/04/23 09:09:23;;;;;;;19.92;16.70;;;;;;;-150.27;100.00;61272.81;5227355;28;20033;-76
2022/04/23 09:11:57;;;;;;;20.48;17.80;;;;;;;-150.27;100.00;61272.81;5226960;28;20028;-77
2022/04/23 09:14:32;;;;;;;18.00;16.42;;;;;;;-150.27;100.00;61272.81;5213544;28;20079;-77
2022/04/23 09:25:49;;;;;;;19.35;17.65;;;;;;;-150.27;100.00;61272.81;5227730;28;20041;-76
2022/04/23 09:28:23;;;;;;;22.17;19.85;;;;;;;-150.27;100.00;61272.81;5210526;28;20381;-77
2022/04/23 09:30:55;;;;;;;24.33;18.63;;;;;;;-150.27;100.00;61272.81;5227368;28;20022;-77
2022/04/23 09:33:43;;;;;;;20.15;18.30;;;;;;;-150.27;100.00;61272.81;5214292;28;20036;-77
2022/04/23 09:36:15;;;;;;;22.35;19.05;;;;;;;-150.27;100.00;61272.81;5214243;28;20405;-76
2022/04/23 09:39:03;;;;;;;20.27;18.38;;;;;;;-150.27;100.00;61272.81;5232031;28;20053;-76
2022/04/23 09:41:35;;;;;;;22.15;20.08;;;;;;;-150.27;100.00;61272.81;5231459;28;20083;-77
2022/04/23 09:44:09;;;;;;;23.73;19.67;;;;;;;-150.27;100.00;61272.81;5231504;28;20021;-76
2022/04/23 09:46:48;;;;;;;20.15;18.35;;;;;;;-150.27;100.00;61272.81;5232312;28;20021;-77
2022/04/23 09:49:23;;;;;;;20.73;18.83;;;;;;;-150.27;100.00;61272.81;5214715;28;20061;-76
2022/04/23 09:52:00;;;;;;;21.20;18.92;;;;;;;-150.27;100.00;61272.81;5232056;28;20578;-77
2022/04/23 09:54:32;;;;;;;21.88;19.23;;;;;;;-150.27;100.00;61272.81;5232296;28;20025;-77
2022/04/23 09:57:04;;;;;;;19.75;17.92;;;;;;;-150.27;100.00;61272.81;5231887;28;20130;-76
2022/04/23 09:59:35;;;;;;;19.77;17.83;;;;;;;-150.27;100.00;61272.81;5230825;28;20017;-76
2022/04/23 10:02:14;;;;;;;20.63;18.60;;;;;;;-150.27;100.00;61272.81;5213909;28;20022;-76
2022/04/23 10:04:46;;;;;;;19.48;17.25;;;;;;;-150.27;100.00;61272.81;5231672;28;20112;-73
2022/04/23 10:07:18;;;;;;;18.23;16.60;;;;;;;-150.27;100.00;61272.81;5232219;28;20481;-77
2022/04/23 10:09:49;;;;;;;19.23;17.20;;;;;;;-150.27;100.00;61272.81;5230716;28;20695;-77
2022/04/23 10:12:25;;;;;;;20.17;18.45;;;;;;;-150.27;100.00;61272.81;5232015;28;20040;-76
2022/04/23 10:14:59;;;;;;;22.83;17.90;;;;;;;-150.27;100.00;61272.81;5231292;28;20534;-76
2022/04/23 10:17:31;;;;;;;22.27;17.92;;;;;;;-150.27;100.00;61272.81;5235086;28;20021;-77
2022/04/23 10:20:04;;;;;;;18.63;16.90;;;;;;;-150.27;100.00;61272.81;5213290;28;20060;-77
2022/04/23 10:23:08;;;;;;;19.92;18.08;;;;;;;-150.27;100.00;61272.81;5231759;28;20026;-76
2022/04/23 10:25:53;;;;;;;20.75;17.95;;;;;;;-150.27;100.00;61272.81;5231725;28;20060;-76
2022/04/23 10:28:25;;;;;;;19.92;18.00;;;;;;;-150.27;100.00;61272.81;5230436;28;20040;-76
2022/04/23 10:31:17;;;;;;;19.77;17.83;;;;;;;-150.27;100.00;61272.81;5213453;28;20040;-77
2022/04/23 10:33:52;;;;;;;20.35;18.38;;;;;;;-150.27;100.00;61272.81;5230659;28;20037;-77
2022/04/23 10:36:23;;;;;;;19.92;17.35;;;;;;;-150.27;100.00;61272.81;5231088;28;20032;-72
2022/04/23 10:39:21;;;;;;;18.83;17.02;;;;;;;-150.27;100.00;61272.81;5230657;28;20029;-76
2022/04/23 10:41:54;;;;;;;18.40;16.70;;;;;;;-150.27;100.00;61272.81;5230384;28;20039;-76
2022/04/23 10:44:30;;;;;;;19.13;17.13;;;;;;;-150.27;100.00;61272.81;5229394;28;20021;-77
2022/04/23 10:47:11;;;;;;;17.65;15.95;;;;;;;-150.27;100.00;61272.81;5230903;28;20026;-77
2022/04/23 10:49:43;;;;;;;19.88;17.95;;;;;;;-150.27;100.00;61272.81;5230846;28;20068;-77
2022/04/23 10:52:34;;;;;;;21.13;18.83;;;;;;;-150.27;100.00;61272.81;5230572;28;20100;-77
2022/04/23 10:55:06;;;;;;;20.40;18.50;;;;;;;-150.27;100.00;61272.81;5230805;28;20037;-77
2022/04/23 10:57:39;;;;;;;20.35;17.95;;;;;;;-150.27;100.00;61272.81;5212889;28;20088;-77
2022/04/23 11:00:12;;;;;;;19.27;17.65;;;;;;;-150.27;100.00;61272.81;5229236;28;20025;-76
2022/04/23 11:02:53;;;;;;;22.52;19.48;;;;;;;-150.27;100.00;61272.81;5230508;28;20069;-76
2022/04/23 11:14:47;;;;;;;21.45;18.58;;;;;;;-150.27;100.00;61272.81;5229337;28;20021;-76
2022/04/23 11:17:25;;;;;;;19.27;17.38;;;;;;;-150.27;100.00;61272.81;5212959;28;20373;-76
2022/04/23 11:19:56;;;;;;;20.45;18.60;;;;;;;-150.27;100.00;61272.81;5212572;28;20033;-76
2022/04/23 11:22:28;;;;;;;20.55;18.63;;;;;;;-150.27;100.00;61272.81;5231917;28;20083;-77
2022/04/23 11:24:59;;;;;;;24.23;19.52;;;;;;;-150.27;100.00;61272.81;5232369;28;20060;-77
2022/04/23 11:27:33;;;;;;;23.73;21.67;;;;;;;-150.27;100.00;61272.81;5230059;28;20046;-76
2022/04/23 11:30:05;;;;;;;21.77;19.75;;;;;;;-150.27;100.00;61272.81;5211103;28;20030;-76
2022/04/23 11:32:37;;;;;;;21.52;19.63;;;;;;;-150.27;100.00;61272.81;5230370;28;20091;-77
2022/04/23 11:35:09;;;;;;;22.30;20.08;;;;;;;-150.27;100.00;61272.81;5229883;28;20033;-76
2022/04/23 11:37:41;;;;;;;23.10;21.02;;;;;;;-150.27;100.00;61272.81;5229841;28;20029;-77
2022/04/23 11:40:14;;;;;;;20.98;18.95;;;;;;;-150.27;100.00;61272.81;5211429;28;20040;-77
2022/04/23 11:42:46;;;;;;;20.75;18.85;;;;;;;-150.27;100.00;61272.81;5230030;28;20048;-74
2022/04/23 11:45:19;;;;;;;20.13;18.23;;;;;;;-150.27;100.00;61272.81;5228942;28;20396;-77
2022/04/23 11:47:51;;;;;;;21.77;19.77;;;;;;;-150.27;100.00;61272.81;5229461;28;20029;-77